createdAt,value
2018-12-19T00:00:12.366Z,28.53
2018-12-19T00:02:45.761Z,30.03
2018-12-19T00:05:19.753Z,32.20
2018-12-19T00:07:50.834Z,28.47
2018-12-19T00:10:18.321Z,32.37
2018-12-19T00:12:45.872Z,31.83
2018-12-19T00:15:14.769Z,28.97
2018-12-19T00:17:45.188Z,30.20
2018-12-19T00:20:16.184Z,28.50
2018-12-19T00:22:47.136Z,29.90
2018-12-19T00:25:18.084Z,30.40
2018-12-19T00:27:51.983Z,32.03
2018-12-19T00:30:20.986Z,30.43
2018-12-19T00:32:54.925Z,28.73
2018-12-19T00:35:25.443Z,32.30
2018-12-19T00:37:59.183Z,28.63
2018-12-19T00:40:30.494Z,27.70
2018-12-19T00:43:01.376Z,26.53
2018-12-19T00:45:35.232Z,29.13
2018-12-19T00:48:09.095Z,36.50
2018-12-19T00:50:42.984Z,33.30
2018-12-19T00:53:14.207Z,31.97
2018-12-19T00:55:45.176Z,33.97
2018-12-19T01:00:45.712Z,35.53
2018-12-19T01:03:16.566Z,37.00
2018-12-19T01:05:47.325Z,42.30
2018-12-19T01:08:20.954Z,36.53
2018-12-19T01:10:52.156Z,37.73
2018-12-19T01:13:25.428Z,39.47
2018-12-19T01:15:56.703Z,33.07
2018-12-19T01:18:30.480Z,40.37
2018-12-19T01:21:01.362Z,38.23
2018-12-19T01:23:28.895Z,36.17
2018-12-19T01:26:02.644Z,42.00
2018-12-19T01:28:33.805Z,41.27
2018-12-19T01:31:07.177Z,37.23
2018-12-19T01:33:38.293Z,47.77
2018-12-19T01:36:09.459Z,44.47
2018-12-19T01:38:43.030Z,42.77
2018-12-19T01:41:17.021Z,41.90
2018-12-19T01:43:47.857Z,40.37
2018-12-19T01:46:19.068Z,43.73
2018-12-19T01:48:50.105Z,44.53
2018-12-19T01:51:23.857Z,43.23
2018-12-19T01:53:57.725Z,46.00
2018-12-19T01:56:31.411Z,41.80
2018-12-19T01:59:05.487Z,45.80
2018-12-19T02:01:36.814Z,47.43
2018-12-19T02:04:10.534Z,45.20
2018-12-19T02:06:44.731Z,44.47
2018-12-19T02:09:15.725Z,43.63
2018-12-19T02:11:49.328Z,47.50
2018-12-19T02:14:20.370Z,41.20
2018-12-19T02:16:54.058Z,42.50
2018-12-19T02:19:25.239Z,38.50
2018-12-19T02:21:58.997Z,42.40
2018-12-19T02:24:30.244Z,38.97
2018-12-19T02:27:04.602Z,36.40
2018-12-19T02:29:38.644Z,45.00
2018-12-19T02:32:09.879Z,36.33
2018-12-19T02:34:43.581Z,36.00
2018-12-19T02:37:17.524Z,33.60
2018-12-19T02:39:48.476Z,30.20
2018-12-19T02:42:19.315Z,30.50
2018-12-19T02:44:53.061Z,31.27
2018-12-19T02:47:24.213Z,32.17
2018-12-19T02:49:55.287Z,31.67
2018-12-19T02:52:28.859Z,30.60
2018-12-19T02:54:58.223Z,31.03
2018-12-19T02:57:31.774Z,30.70
2018-12-19T03:00:03.824Z,36.57
2018-12-19T03:02:35.089Z,35.33
2018-12-19T03:05:06.110Z,36.23
2018-12-19T03:07:37.398Z,35.03
2018-12-19T03:10:08.010Z,34.33
2018-12-19T03:12:41.698Z,39.63
2018-12-19T03:15:13.036Z,34.83
2018-12-19T03:17:43.697Z,36.63
2018-12-19T03:20:17.357Z,37.80
2018-12-19T03:30:25.201Z,38.93
2018-12-19T03:32:56.150Z,39.23
2018-12-19T03:35:27.265Z,41.23
2018-12-19T03:38:00.732Z,39.60
2018-12-19T03:40:34.762Z,39.30
2018-12-19T03:43:06.041Z,40.90
2018-12-19T03:45:39.880Z,37.97
2018-12-19T03:48:15.624Z,40.00
2018-12-19T03:50:49.164Z,39.83
2018-12-19T03:53:22.348Z,37.50
2018-12-19T03:55:56.471Z,40.07
2018-12-19T03:58:30.385Z,44.97
2018-12-19T04:01:01.639Z,37.83
2018-12-19T04:03:32.586Z,37.87
2018-12-19T04:06:03.405Z,38.97
2018-12-19T04:08:37.078Z,36.20
2018-12-19T04:11:11.085Z,37.87
2018-12-19T04:13:42.257Z,41.40
2018-12-19T04:16:11.084Z,39.40
2018-12-19T04:18:42.350Z,38.10
2018-12-19T04:21:16.112Z,39.97
2018-12-19T04:23:46.906Z,35.73
2018-12-19T04:26:20.484Z,35.40
2018-12-19T04:28:54.385Z,34.63
2018-12-19T04:31:30.475Z,38.87
2018-12-19T04:34:04.587Z,39.13
2018-12-19T04:36:38.469Z,34.33
2018-12-19T04:39:12.395Z,35.03
2018-12-19T04:41:43.657Z,35.57
2018-12-19T04:44:17.258Z,36.60
2018-12-19T04:46:47.998Z,34.10
2018-12-19T04:49:19.148Z,34.47
2018-12-19T04:51:50.359Z,35.93
2018-12-19T04:54:23.733Z,32.83
2018-12-19T04:56:57.511Z,38.37
2018-12-19T04:59:31.438Z,38.13
2018-12-19T05:02:02.576Z,39.87
2018-12-19T05:04:36.120Z,41.43
2018-12-19T05:07:07.286Z,41.37
2018-12-19T05:09:38.029Z,44.93
2018-12-19T05:12:11.815Z,38.40
2018-12-19T05:14:43.297Z,41.83
2018-12-19T05:17:16.724Z,39.10
2018-12-19T05:19:48.278Z,40.10
2018-12-19T05:22:22.379Z,44.07
2018-12-19T05:24:53.676Z,39.63
2018-12-19T05:27:24.745Z,40.00
2018-12-19T05:29:55.695Z,42.40
2018-12-19T05:32:29.524Z,48.77
2018-12-19T05:35:03.479Z,42.93
2018-12-19T05:37:36.999Z,44.10
2018-12-19T05:40:10.305Z,39.63
2018-12-19T05:42:41.557Z,40.30
2018-12-19T05:45:15.207Z,34.70
2018-12-19T05:47:46.478Z,40.40
2018-12-19T05:50:18.168Z,37.57
2018-12-19T05:52:48.803Z,36.33
2018-12-19T05:55:19.333Z,36.57
2018-12-19T05:57:56.877Z,38.07
2018-12-19T06:00:31.065Z,37.27
2018-12-19T06:03:02.135Z,34.27
2018-12-19T06:05:36.109Z,33.57
2018-12-19T06:08:07.190Z,32.13
2018-12-19T06:10:38.368Z,29.60
2018-12-19T06:13:12.611Z,28.23
2018-12-19T06:15:43.978Z,27.83
2018-12-19T06:18:11.486Z,28.63
2018-12-19T06:20:42.745Z,27.07
2018-12-19T06:23:13.529Z,25.83
2018-12-19T06:25:44.448Z,21.87
2018-12-19T06:28:15.348Z,22.80
2018-12-19T06:30:49.197Z,24.47
2018-12-19T06:33:20.596Z,19.23
2018-12-19T06:35:51.466Z,24.67
2018-12-19T06:38:22.553Z,26.03
2018-12-19T06:40:56.557Z,23.53
2018-12-19T06:43:30.566Z,23.30
2018-12-19T06:46:01.761Z,24.63
2018-12-19T06:48:32.889Z,24.87
2018-12-19T06:51:05.495Z,20.73
2018-12-19T06:53:36.889Z,25.00
2018-12-19T06:56:04.415Z,28.40
2018-12-19T06:58:37.609Z,25.33
2018-12-19T07:01:08.670Z,21.20
2018-12-19T07:03:39.544Z,26.23
2018-12-19T07:06:10.579Z,9.57
2018-12-19T07:08:41.784Z,11.33
2018-12-19T07:11:12.525Z,8.80
2018-12-19T07:13:46.168Z,11.10
2018-12-19T07:16:20.964Z,12.07
2018-12-19T07:18:52.016Z,13.60
2018-12-19T07:21:26.018Z,16.33
2018-12-19T07:23:59.757Z,23.43
2018-12-19T07:26:31.149Z,19.73
2018-12-19T07:29:04.524Z,22.00
2018-12-19T07:31:35.837Z,20.47
2018-12-19T07:34:06.804Z,29.63
2018-12-19T07:36:40.410Z,24.57
2018-12-19T07:39:11.541Z,20.30
2018-12-19T07:41:43.096Z,19.10
2018-12-19T07:44:16.681Z,18.63
2018-12-19T07:46:45.826Z,20.87
2018-12-19T07:49:17.071Z,35.30
2018-12-19T07:51:48.152Z,23.20
2018-12-19T07:54:19.884Z,19.10
2018-12-19T07:56:51.216Z,20.73
2018-12-19T07:59:24.811Z,18.33
2018-12-19T08:01:58.054Z,17.47
2018-12-19T08:04:29.641Z,20.80
2018-12-19T08:07:00.397Z,23.77
2018-12-19T08:09:30.863Z,13.03
2018-12-19T08:11:58.438Z,12.43
2018-12-19T08:14:29.539Z,13.40
2018-12-19T08:17:00.208Z,13.33
2018-12-19T08:19:33.736Z,11.33
2018-12-19T08:22:05.001Z,12.20
2018-12-19T08:24:35.901Z,7.33
2018-12-19T08:27:09.643Z,8.27
2018-12-19T08:29:50.145Z,7.23
2018-12-19T08:32:23.509Z,12.37
2018-12-19T08:34:54.816Z,7.60
2018-12-19T08:37:28.405Z,9.53
2018-12-19T08:40:02.477Z,13.40
2018-12-19T08:42:33.193Z,12.97
2018-12-19T08:45:04.548Z,14.43
2018-12-19T08:47:35.112Z,12.90
2018-12-19T08:50:07.946Z,16.70
2018-12-19T08:52:41.456Z,18.00
2018-12-19T08:55:12.113Z,17.73
2018-12-19T08:57:45.752Z,22.30
2018-12-19T09:00:14.698Z,14.37
2018-12-19T09:02:45.588Z,20.17
2018-12-19T09:05:16.853Z,18.20
2018-12-19T09:07:48.113Z,17.20
2018-12-19T09:10:19.172Z,18.37
2018-12-19T09:12:50.200Z,16.43
2018-12-19T09:18:21.757Z,17.07
2018-12-19T09:20:55.448Z,15.03
2018-12-19T09:23:29.278Z,15.33
2018-12-19T09:26:00.270Z,16.80
2018-12-19T09:28:31.264Z,20.13
2018-12-19T09:31:02.365Z,26.50
2018-12-19T09:33:33.481Z,32.70
2018-12-19T09:36:06.827Z,19.53
2018-12-19T09:38:37.830Z,20.17
2018-12-19T09:41:12.454Z,22.00
2018-12-19T09:43:46.852Z,24.83
2018-12-19T09:46:18.234Z,23.33
2018-12-19T09:48:49.354Z,20.60
2018-12-19T09:51:22.977Z,21.17
2018-12-19T09:53:53.513Z,23.43
2018-12-19T09:56:26.913Z,27.13
2018-12-19T09:58:58.232Z,23.37
2018-12-19T10:01:31.815Z,22.10
2018-12-19T10:04:03.106Z,23.83
2018-12-19T10:06:34.216Z,20.10
2018-12-19T10:09:07.679Z,21.13
2018-12-19T10:11:42.542Z,20.63
2018-12-19T10:14:16.494Z,21.17
2018-12-19T10:16:47.727Z,22.70
2018-12-19T10:19:18.462Z,21.73
2018-12-19T10:21:52.137Z,18.90
2018-12-19T10:24:25.310Z,23.23
2018-12-19T10:26:56.265Z,18.47
2018-12-19T10:29:27.208Z,19.07
2018-12-19T10:31:58.463Z,20.63
2018-12-19T10:34:29.748Z,25.97
2018-12-19T10:37:00.752Z,18.13
2018-12-19T10:39:32.024Z,15.97
2018-12-19T10:42:03.082Z,16.00
2018-12-19T10:44:37.078Z,16.63
2018-12-19T10:47:08.015Z,15.43
2018-12-19T10:49:39.171Z,17.07
2018-12-19T10:52:11.650Z,17.50
2018-12-19T10:54:45.583Z,17.63
2018-12-19T10:57:19.572Z,17.93
2018-12-19T10:59:50.963Z,19.97
2018-12-19T11:02:21.954Z,14.77
2018-12-19T11:04:55.562Z,17.67
2018-12-19T11:07:29.696Z,18.10
2018-12-19T11:10:00.615Z,16.27
2018-12-19T11:12:33.840Z,15.90
2018-12-19T11:15:09.314Z,17.50
2018-12-19T11:17:42.912Z,16.37
2018-12-19T11:20:16.801Z,16.60
2018-12-19T11:22:51.276Z,14.93
2018-12-19T11:25:26.138Z,14.60
2018-12-19T11:28:06.863Z,13.40
2018-12-19T11:30:40.958Z,15.17
2018-12-19T11:33:15.538Z,13.70
2018-12-19T11:35:46.166Z,12.57
2018-12-19T11:38:17.915Z,13.80
2018-12-19T11:40:48.857Z,15.80
2018-12-19T11:43:22.421Z,8.77
2018-12-19T11:45:55.886Z,9.13
2018-12-19T11:48:26.548Z,17.27
2018-12-19T11:50:57.384Z,11.47
2018-12-19T11:53:31.456Z,11.87
2018-12-19T11:56:02.781Z,11.77
2018-12-19T11:58:33.668Z,10.83
2018-12-19T12:01:07.403Z,14.83
2018-12-19T12:03:38.477Z,13.83
2018-12-19T12:06:06.184Z,13.70
2018-12-19T12:08:33.816Z,14.37
2018-12-19T12:11:08.033Z,14.83
2018-12-19T12:13:39.268Z,13.10
2018-12-19T12:16:10.677Z,20.93
2018-12-19T12:18:41.214Z,13.53
2018-12-19T12:21:11.940Z,26.37
2018-12-19T12:23:47.269Z,13.17
2018-12-19T12:26:18.292Z,13.93
2018-12-19T12:28:52.051Z,14.47
2018-12-19T12:31:26.084Z,14.10
2018-12-19T12:33:57.072Z,18.43
2018-12-19T12:36:30.253Z,18.47
2018-12-19T12:38:57.847Z,13.53
2018-12-19T12:41:25.558Z,16.63
2018-12-19T12:43:56.820Z,14.27
2018-12-19T12:46:24.561Z,11.77
2018-12-19T12:48:52.104Z,8.93
2018-12-19T12:51:23.171Z,16.57
2018-12-19T12:53:50.873Z,10.70
2018-12-19T12:56:22.284Z,10.70
2018-12-19T12:58:55.655Z,3.17
2018-12-19T13:01:26.938Z,8.97
2018-12-19T13:03:57.937Z,9.90
2018-12-19T13:06:29.028Z,11.97
2018-12-19T13:09:01.270Z,2.07
2018-12-19T13:11:31.933Z,5.53
2018-12-19T13:14:02.933Z,7.53
2018-12-19T13:16:36.429Z,15.57
2018-12-19T13:19:10.474Z,15.03
2018-12-19T13:21:44.526Z,14.40
2018-12-19T13:24:15.531Z,16.73
2018-12-19T13:26:46.475Z,13.17
2018-12-19T13:29:17.670Z,10.60
2018-12-19T13:31:49.091Z,13.43
2018-12-19T13:34:22.308Z,24.30
2018-12-19T13:37:03.596Z,14.90
2018-12-19T13:39:34.424Z,15.33
2018-12-19T13:42:05.742Z,15.73
2018-12-19T13:44:38.082Z,18.77
2018-12-19T13:47:07.240Z,23.93
2018-12-19T13:49:40.918Z,18.80
2018-12-19T13:55:27.200Z,18.97
2018-12-19T14:00:59.471Z,16.87
2018-12-19T14:03:33.372Z,12.20
2018-12-19T14:06:09.301Z,3.20
2018-12-19T14:08:40.681Z,2.10
2018-12-19T14:11:11.621Z,5.83
2018-12-19T14:13:45.196Z,1.13
2018-12-19T14:16:16.108Z,1.10
2018-12-19T14:18:45.228Z,8.07
2018-12-19T14:21:19.022Z,1.17
2018-12-19T14:23:52.987Z,1.07
2018-12-19T14:26:26.861Z,1.10
2018-12-19T14:29:00.668Z,1.33
2018-12-19T14:31:34.840Z,1.10
2018-12-19T14:34:05.664Z,3.47
2018-12-19T14:36:40.101Z,1.30
2018-12-19T14:39:11.264Z,3.70
2018-12-19T14:41:42.492Z,1.10
2018-12-19T14:44:13.262Z,1.20
2018-12-19T14:46:46.912Z,1.40
2018-12-19T14:49:20.635Z,2.03
2018-12-19T14:51:53.811Z,1.67
2018-12-19T14:54:24.775Z,1.10
2018-12-19T14:56:58.458Z,1.13
2018-12-19T14:59:32.603Z,2.63
2018-12-19T15:02:06.088Z,1.83
2018-12-19T15:04:40.097Z,3.80
2018-12-19T15:07:14.725Z,1.77
2018-12-19T15:09:45.494Z,1.40
2018-12-19T15:12:25.507Z,1.10
2018-12-19T15:14:55.300Z,2.40
2018-12-19T15:17:26.438Z,3.47
2018-12-19T15:20:00.165Z,1.53
2018-12-19T15:22:34.392Z,1.43
2018-12-19T15:25:08.283Z,2.13
2018-12-19T15:27:42.077Z,1.13
2018-12-19T15:30:13.314Z,20.00
2018-12-19T15:32:46.993Z,6.50
2018-12-19T15:35:20.537Z,12.63
2018-12-19T15:37:56.741Z,13.47
2018-12-19T15:40:30.102Z,16.90
2018-12-19T15:43:16.018Z,11.33
2018-12-19T15:45:50.307Z,17.47
2018-12-19T15:48:21.544Z,12.60
2018-12-19T15:50:55.349Z,13.30
2018-12-19T15:53:25.781Z,13.40
2018-12-19T15:55:59.635Z,16.63
2018-12-19T15:58:30.760Z,12.07
2018-12-19T16:01:01.751Z,14.40
2018-12-19T16:03:32.676Z,13.23
2018-12-19T16:06:03.692Z,11.30
2018-12-19T16:08:37.630Z,7.17
2018-12-19T16:11:11.694Z,9.67
2018-12-19T16:13:43.132Z,8.50
2018-12-19T16:16:16.698Z,5.73
2018-12-19T16:18:47.747Z,6.33
2018-12-19T16:21:18.865Z,5.90
2018-12-19T16:23:49.798Z,11.20
2018-12-19T16:26:23.404Z,7.20
2018-12-19T16:28:52.727Z,7.17
2018-12-19T16:31:26.130Z,7.47
2018-12-19T16:33:57.480Z,5.87
2018-12-19T16:36:28.904Z,6.33
2018-12-19T16:39:02.116Z,8.10
2018-12-19T16:41:35.733Z,10.10
2018-12-19T16:44:11.769Z,8.17
2018-12-19T16:46:45.568Z,8.23
2018-12-19T16:49:19.675Z,6.87
2018-12-19T16:51:55.601Z,7.70
2018-12-19T16:54:29.319Z,7.23
2018-12-19T16:57:03.262Z,7.87
2018-12-19T16:59:37.020Z,5.53
2018-12-19T17:02:11.007Z,8.20
2018-12-19T17:04:45.136Z,11.47
2018-12-19T17:07:12.718Z,6.47
2018-12-19T17:09:43.885Z,12.97
2018-12-19T17:12:14.954Z,10.10
2018-12-19T17:14:42.483Z,9.87
2018-12-19T17:17:10.027Z,8.67
2018-12-19T17:19:40.593Z,10.03
2018-12-19T17:22:11.616Z,9.87
2018-12-19T17:24:42.068Z,7.70
2018-12-19T17:27:15.388Z,9.17
2018-12-19T17:29:42.879Z,10.57
2018-12-19T17:32:10.631Z,11.83
2018-12-19T17:34:38.167Z,12.90
2018-12-19T17:37:10.831Z,11.43
2018-12-19T17:39:41.532Z,13.83
2018-12-19T17:42:19.403Z,12.47
2018-12-19T17:44:53.184Z,12.57
2018-12-19T17:47:20.720Z,14.30
2018-12-19T17:49:51.539Z,13.77
2018-12-19T17:52:22.002Z,14.67
2018-12-19T17:54:55.175Z,15.20
2018-12-19T17:57:22.720Z,14.00
2018-12-19T17:59:53.486Z,13.37
2018-12-19T18:02:24.605Z,16.27
2018-12-19T18:04:55.718Z,15.73
2018-12-19T18:07:26.817Z,15.20
2018-12-19T18:09:57.791Z,16.33
2018-12-19T18:12:28.637Z,14.43
2018-12-19T18:15:02.155Z,14.80
2018-12-19T18:17:33.478Z,12.63
2018-12-19T18:20:05.732Z,14.33
2018-12-19T18:22:36.395Z,13.33
2018-12-19T18:25:10.162Z,11.70
2018-12-19T18:27:37.664Z,13.17
2018-12-19T18:30:06.596Z,14.37
2018-12-19T18:32:37.945Z,13.37
2018-12-19T18:35:09.277Z,15.20
2018-12-19T18:37:36.760Z,12.90
2018-12-19T18:40:10.206Z,14.50
2018-12-19T18:42:37.715Z,14.10
2018-12-19T18:45:11.722Z,13.13
2018-12-19T18:47:34.996Z,15.10
2018-12-19T18:50:02.514Z,17.50
2018-12-19T18:52:33.983Z,18.03
2018-12-19T18:55:08.107Z,16.63
2018-12-19T18:57:39.189Z,21.23
2018-12-19T19:00:09.779Z,14.53
2018-12-19T19:02:37.344Z,16.03
2018-12-19T19:05:08.601Z,18.33
2018-12-19T19:07:39.948Z,16.10
2018-12-19T19:10:13.973Z,16.50
2018-12-19T19:12:47.438Z,16.27
2018-12-19T19:15:18.423Z,13.93
2018-12-19T19:17:52.089Z,14.40
2018-12-19T19:20:28.107Z,15.27
2018-12-19T19:22:59.493Z,14.47
2018-12-19T19:25:30.577Z,13.47
2018-12-19T19:28:01.660Z,16.10
2018-12-19T19:30:33.038Z,12.60
2018-12-19T19:33:04.059Z,15.63
2018-12-19T19:35:35.097Z,15.93
2018-12-19T19:38:08.698Z,15.17
2018-12-19T19:40:42.300Z,15.27
2018-12-19T19:43:13.020Z,17.63
2018-12-19T19:45:44.360Z,17.07
2018-12-19T19:48:14.837Z,17.77
2018-12-19T19:50:42.352Z,20.30
2018-12-19T19:53:15.660Z,16.67
2018-12-19T19:55:49.383Z,16.77
2018-12-19T19:58:26.447Z,17.93
2018-12-19T20:00:53.961Z,15.90
2018-12-19T20:03:21.515Z,14.53
2018-12-19T20:05:52.349Z,14.77
2018-12-19T20:08:25.569Z,15.90
2018-12-19T20:10:56.237Z,19.30
2018-12-19T20:13:33.087Z,20.07
2018-12-19T20:15:59.290Z,13.03
2018-12-19T20:18:30.084Z,11.50
2018-12-19T20:21:02.057Z,10.67
2018-12-19T20:23:34.512Z,9.87
2018-12-19T20:26:08.209Z,8.83
2018-12-19T20:28:37.129Z,7.43
2018-12-19T20:31:10.600Z,5.77
2018-12-19T20:33:38.207Z,11.77
2018-12-19T20:36:09.057Z,7.73
2018-12-19T20:38:36.540Z,10.57
2018-12-19T20:41:04.088Z,10.47
2018-12-19T20:43:40.037Z,6.57
2018-12-19T20:46:11.870Z,6.93
2018-12-19T20:48:39.420Z,11.93
2018-12-19T20:51:06.944Z,10.80
2018-12-19T20:53:37.432Z,9.30
2018-12-19T20:56:05.009Z,12.43
2018-12-19T20:58:36.462Z,12.37
2018-12-19T21:01:07.737Z,13.93
2018-12-19T21:03:41.377Z,10.73
2018-12-19T21:06:14.761Z,13.93
2018-12-19T21:08:42.382Z,10.30
2018-12-19T21:11:15.746Z,9.90
2018-12-19T21:13:48.173Z,13.10
2018-12-19T21:16:23.960Z,10.43
2018-12-19T21:18:54.740Z,13.13
2018-12-19T21:21:22.312Z,14.00
2018-12-19T21:23:49.868Z,12.67
2018-12-19T21:26:20.717Z,18.43
2018-12-19T21:28:48.207Z,13.60
2018-12-19T21:31:21.844Z,14.50
2018-12-19T21:33:55.654Z,12.90
2018-12-19T21:36:26.345Z,13.40
2018-12-19T21:38:53.859Z,11.30
2018-12-19T21:41:25.379Z,11.77
2018-12-19T21:43:58.800Z,13.50
2018-12-19T21:46:29.600Z,12.47
2018-12-19T21:49:00.627Z,13.63
2018-12-19T21:51:34.248Z,14.07
2018-12-19T21:54:08.247Z,10.90
2018-12-19T21:56:38.975Z,9.13
2018-12-19T21:59:12.410Z,10.93
2018-12-19T22:01:46.279Z,13.73
2018-12-19T22:04:20.012Z,10.20
2018-12-19T22:06:51.468Z,11.33
2018-12-19T22:12:10.860Z,10.73
2018-12-19T22:14:44.322Z,9.17
2018-12-19T22:17:20.509Z,11.30
2018-12-19T22:19:54.582Z,12.30
2018-12-19T22:22:28.554Z,11.27
2018-12-19T22:25:04.247Z,10.87
2018-12-19T22:27:33.219Z,12.13
2018-12-19T22:30:06.364Z,9.93
2018-12-19T22:32:33.957Z,8.53
2018-12-19T22:35:08.125Z,11.00
2018-12-19T22:37:35.642Z,9.70
2018-12-19T22:40:13.386Z,9.30
2018-12-19T22:42:44.969Z,9.77
2018-12-19T22:45:16.401Z,10.90
2018-12-19T22:47:50.611Z,10.43
2018-12-19T22:50:18.349Z,11.50
2018-12-19T22:52:45.956Z,11.20
2018-12-19T22:55:18.210Z,8.57
2018-12-19T22:57:52.243Z,7.90
2018-12-19T23:00:20.819Z,8.47
2018-12-19T23:03:00.002Z,9.10
2018-12-19T23:05:33.321Z,9.40
2018-12-19T23:08:01.205Z,11.37
2018-12-19T23:10:28.777Z,8.93
2018-12-19T23:12:56.526Z,13.70
2018-12-19T23:15:30.740Z,8.73
2018-12-19T23:18:07.300Z,8.57
2018-12-19T23:20:40.955Z,9.23
2018-12-19T23:23:15.060Z,9.37
2018-12-19T23:25:48.894Z,9.83
2018-12-19T23:28:23.094Z,10.83
2018-12-19T23:30:57.307Z,9.87
2018-12-19T23:33:28.308Z,9.50
2018-12-19T23:35:59.077Z,8.70
2018-12-19T23:38:29.859Z,8.57
2018-12-19T23:41:00.773Z,8.23
2018-12-19T23:43:34.516Z,10.43
2018-12-19T23:46:05.858Z,10.87
2018-12-19T23:48:36.462Z,9.50
2018-12-19T23:51:07.837Z,9.93
2018-12-19T23:53:42.066Z,9.70
2018-12-19T23:56:12.879Z,13.53
2018-12-19T23:58:43.646Z,11.80
